Aviation Digital Data Service (ADDS)

Output produced by METARs form (1701 UTC 16 June 2019)
found at http://www.aviationweather.gov/metar/data/
 
Forecast for: FSIA (SEYCHELLES INTL , SC)
Text: TAF FSIA 161100Z 1612/1712 16010G20KT 9999 FEW018CB BKN023
Forecast period: 1200 UTC 16 June 2019 to 1200 UTC 17 June 2019
Forecast type: FROM: standard forecast or significant change
Winds: from the SSE (160 degrees) at 12 MPH (10 knots; 5.1 m/s)
gusting to 23 MPH (20 knots; 10.3 m/s)
Visibility: 6 or more miles 10+ km)
Ceiling: 2300 feet AGL
Clouds: few clouds at 1800 feet AGL
broken clouds at 2300 feet AGL
Weather: no significant weather forecast for this period
Text: TEMPO 1612/1618 8000 SHRA FEW016CB BKN022
Forecast period: 1200 to 1800 UTC 16 June 2019
Forecast type: TEMPORARY: The following changes expected for less than half the time period
Visibility: 5 miles (8 km)
Ceiling: 2200 feet AGL
Clouds: few clouds at 1600 feet AGL
broken clouds at 2200 feet AGL
Weather: SHRA  (rain showers)
Text: PROB40
Forecast period: 0200 to 0800 UTC 17 June 2019
Forecast type: TEMPORARY: The following changes expected for less than half the time period
Visibility: missing
Ceiling: 2100 feet AGL
Clouds: few clouds at 1500 feet AGL
broken clouds at 2100 feet AGL
Weather: -SHRA  (light rain showers)